createdAt,value
2022-11-04T00:00:08.569Z,10.00
2022-11-04T00:02:34.973Z,10.10
2022-11-04T00:05:01.458Z,10.11
2022-11-04T00:07:46.513Z,10.08
2022-11-04T00:10:12.934Z,10.06
2022-11-04T00:12:39.366Z,10.03
2022-11-04T00:15:41.398Z,10.02
2022-11-04T00:18:07.866Z,10.01
2022-11-04T00:20:53.235Z,10.00
2022-11-04T00:23:38.029Z,9.97
2022-11-04T00:26:22.935Z,9.98
2022-11-04T00:28:52.950Z,10.02
2022-11-04T00:31:37.857Z,10.05
2022-11-04T00:34:04.245Z,10.08
2022-11-04T00:36:30.574Z,10.02
2022-11-04T00:38:57.114Z,10.06
2022-11-04T00:41:27.053Z,9.95
2022-11-04T00:43:55.583Z,9.89
2022-11-04T00:46:22.465Z,9.91
2022-11-04T00:48:48.964Z,9.86
2022-11-04T00:51:15.609Z,9.79
2022-11-04T00:53:42.445Z,9.78
2022-11-04T00:56:10.045Z,9.75
2022-11-04T00:58:36.479Z,9.79
2022-11-04T01:01:18.554Z,9.71
2022-11-04T01:03:50.836Z,9.69
2022-11-04T01:06:18.832Z,9.58
2022-11-04T01:08:45.856Z,9.52
2022-11-04T01:11:13.378Z,9.45
2022-11-04T01:13:40.178Z,9.42
2022-11-04T01:16:10.082Z,9.43
2022-11-04T01:18:36.503Z,9.42
2022-11-04T01:21:05.399Z,9.35
2022-11-04T01:23:34.035Z,9.33
2022-11-04T01:26:00.888Z,9.31
2022-11-04T01:28:27.417Z,9.20
2022-11-04T01:30:53.806Z,9.22
2022-11-04T01:33:20.176Z,9.15
2022-11-04T01:35:46.548Z,9.08
2022-11-04T01:38:13.085Z,9.07
2022-11-04T01:40:41.095Z,9.03
2022-11-04T01:43:20.137Z,8.96
2022-11-04T01:45:54.361Z,8.94
2022-11-04T01:48:31.275Z,8.83
2022-11-04T01:50:59.452Z,8.67
2022-11-04T01:53:32.947Z,8.53
2022-11-04T01:56:01.881Z,8.48
2022-11-04T01:58:32.475Z,8.53
2022-11-04T02:00:59.081Z,8.39
2022-11-04T02:03:38.666Z,8.34
2022-11-04T02:06:06.333Z,8.20
2022-11-04T02:08:34.246Z,8.29
2022-11-04T02:11:02.817Z,8.31
2022-11-04T02:13:32.741Z,8.31
2022-11-04T02:16:07.970Z,8.08
2022-11-04T02:18:40.312Z,8.03
2022-11-04T02:21:37.907Z,8.10
2022-11-04T02:24:32.101Z,8.08
2022-11-04T02:27:21.326Z,7.99
2022-11-04T02:30:04.346Z,7.95
2022-11-04T02:32:55.275Z,7.99
2022-11-04T02:35:30.452Z,7.92
2022-11-04T02:38:08.081Z,7.90
2022-11-04T02:40:49.609Z,7.97
2022-11-04T02:43:36.493Z,8.02
2022-11-04T02:46:22.162Z,8.00
2022-11-04T02:49:06.114Z,8.07
2022-11-04T02:51:39.718Z,8.17
2022-11-04T02:54:08.194Z,8.16
2022-11-04T02:56:39.349Z,8.27
2022-11-04T02:59:12.638Z,8.60
2022-11-04T03:01:43.555Z,8.46
2022-11-04T03:04:15.284Z,8.65
2022-11-04T03:06:44.684Z,8.76
2022-11-04T03:09:13.901Z,8.74
2022-11-04T03:11:44.637Z,8.65
2022-11-04T03:14:23.985Z,8.87
2022-11-04T03:16:54.177Z,8.92
2022-11-04T03:19:44.556Z,8.85
2022-11-04T03:22:18.924Z,8.92
2022-11-04T03:24:47.586Z,8.97
2022-11-04T03:27:32.285Z,8.90
2022-11-04T03:30:08.295Z,8.84
2022-11-04T03:32:59.769Z,8.79
2022-11-04T03:35:27.856Z,8.80
2022-11-04T03:37:54.554Z,8.75
2022-11-04T03:40:22.317Z,8.68
2022-11-04T03:43:08.871Z,8.66
2022-11-04T03:45:35.861Z,8.59
2022-11-04T03:48:02.538Z,8.61
2022-11-04T03:50:31.615Z,8.55
2022-11-04T03:52:59.079Z,8.52
2022-11-04T03:55:41.634Z,8.35
2022-11-04T03:58:21.430Z,8.47
2022-11-04T04:00:55.950Z,8.49
2022-11-04T04:03:30.952Z,8.47
2022-11-04T04:06:02.535Z,8.53
2022-11-04T04:08:43.791Z,8.60
2022-11-04T04:11:17.638Z,8.63
2022-11-04T04:14:13.275Z,8.63
2022-11-04T04:16:45.840Z,8.66
2022-11-04T04:19:18.065Z,8.60
2022-11-04T04:22:00.845Z,8.66
2022-11-04T04:24:54.271Z,8.57
2022-11-04T04:27:32.150Z,8.68
2022-11-04T04:30:08.518Z,8.69
2022-11-04T04:32:39.570Z,8.69
2022-11-04T04:35:27.296Z,8.68
2022-11-04T04:38:41.516Z,8.64
2022-11-04T04:41:40.153Z,8.58
2022-11-04T04:44:37.085Z,8.46
2022-11-04T04:47:03.945Z,8.40
2022-11-04T04:49:35.084Z,8.38
2022-11-04T04:52:04.373Z,8.39
2022-11-04T04:54:30.958Z,8.41
2022-11-04T04:56:57.430Z,8.41
2022-11-04T04:59:23.829Z,8.58
2022-11-04T05:01:50.332Z,8.64
2022-11-04T05:04:16.856Z,8.66
2022-11-04T05:06:43.225Z,8.68
2022-11-04T05:09:09.579Z,8.69
2022-11-04T05:11:35.968Z,8.71
2022-11-04T05:14:02.353Z,8.72
2022-11-04T05:16:29.154Z,8.74
2022-11-04T05:18:55.724Z,8.76
2022-11-04T05:21:22.109Z,8.79
2022-11-04T05:23:48.479Z,8.83
2022-11-04T05:26:15.165Z,8.79
2022-11-04T05:28:41.607Z,8.75
2022-11-04T05:31:08.631Z,8.69
2022-11-04T05:33:34.996Z,8.57
2022-11-04T05:36:07.599Z,8.57
2022-11-04T05:38:34.233Z,8.55
2022-11-04T05:41:00.798Z,8.49
2022-11-04T05:43:27.707Z,8.46
2022-11-04T05:45:54.483Z,8.44
2022-11-04T05:48:21.023Z,8.45
2022-11-04T05:50:47.502Z,8.35
2022-11-04T05:53:13.908Z,8.21
2022-11-04T05:55:40.374Z,8.25
2022-11-04T05:58:06.991Z,8.19
2022-11-04T06:00:33.527Z,8.16
2022-11-04T06:03:00.025Z,8.02
2022-11-04T06:05:27.826Z,8.09
2022-11-04T06:07:55.348Z,8.06
2022-11-04T06:10:22.000Z,8.21
2022-11-04T06:12:48.869Z,8.25
2022-11-04T06:15:15.264Z,8.19
2022-11-04T06:17:41.699Z,8.14
2022-11-04T06:20:08.647Z,8.07
2022-11-04T06:22:34.985Z,8.09
2022-11-04T06:25:01.447Z,8.07
2022-11-04T06:27:28.935Z,8.04
2022-11-04T06:29:55.352Z,8.02
2022-11-04T06:32:21.852Z,7.91
2022-11-04T06:34:48.211Z,7.95
2022-11-04T06:37:14.596Z,8.00
2022-11-04T06:39:41.022Z,7.93
2022-11-04T06:42:07.500Z,7.83
2022-11-04T06:44:34.519Z,7.91
2022-11-04T06:47:01.759Z,7.94
2022-11-04T06:49:28.460Z,7.91
2022-11-04T06:51:54.922Z,7.93
2022-11-04T06:54:21.286Z,8.08
2022-11-04T06:56:49.032Z,8.09
2022-11-04T06:59:17.626Z,8.00
2022-11-04T07:01:45.096Z,8.12
2022-11-04T07:04:11.666Z,8.15
2022-11-04T07:06:39.829Z,8.20
2022-11-04T07:09:11.381Z,8.26
2022-11-04T07:11:37.910Z,8.21
2022-11-04T07:14:04.336Z,8.17
2022-11-04T07:16:30.759Z,8.26
2022-11-04T07:18:57.281Z,8.35
2022-11-04T07:21:24.226Z,8.42
2022-11-04T07:23:50.725Z,8.40
2022-11-04T07:26:17.322Z,8.35
2022-11-04T07:28:43.833Z,8.28
2022-11-04T07:31:12.034Z,8.21
2022-11-04T07:33:38.420Z,8.27
2022-11-04T07:36:11.320Z,8.39
2022-11-04T07:38:37.856Z,8.44
2022-11-04T07:41:04.527Z,8.46
2022-11-04T07:43:30.961Z,8.56
2022-11-04T07:46:07.689Z,8.60
2022-11-04T07:48:34.856Z,8.65
2022-11-04T07:51:01.677Z,8.68
2022-11-04T07:53:30.076Z,8.56
2022-11-04T07:55:56.992Z,8.69
2022-11-04T07:58:24.279Z,8.77
2022-11-04T08:00:51.409Z,8.85
2022-11-04T08:03:17.844Z,8.90
2022-11-04T08:05:47.240Z,8.93
2022-11-04T08:08:14.276Z,8.94
2022-11-04T08:10:40.771Z,9.00
2022-11-04T08:13:07.586Z,9.06
2022-11-04T08:15:36.065Z,9.19
2022-11-04T08:18:02.429Z,9.28
2022-11-04T08:20:29.856Z,9.34
2022-11-04T08:22:56.328Z,9.42
2022-11-04T08:25:23.434Z,9.44
2022-11-04T08:27:49.901Z,9.49
2022-11-04T08:30:16.308Z,9.46
2022-11-04T08:32:44.359Z,9.42
2022-11-04T08:35:11.953Z,9.38
2022-11-04T08:37:38.580Z,9.46
2022-11-04T08:40:06.578Z,9.46
2022-11-04T08:42:33.136Z,9.48
2022-11-04T08:44:59.521Z,9.60
2022-11-04T08:47:26.025Z,9.66
2022-11-04T08:49:52.602Z,9.74
2022-11-04T08:52:18.983Z,9.77
2022-11-04T08:54:45.525Z,9.89
2022-11-04T08:57:11.945Z,10.04
2022-11-04T08:59:38.582Z,9.96
2022-11-04T09:02:05.034Z,10.03
2022-11-04T09:04:31.567Z,10.12
2022-11-04T09:06:57.940Z,10.54
2022-11-04T09:09:24.321Z,11.44
2022-11-04T09:11:50.764Z,12.57
2022-11-04T09:14:17.944Z,13.32
2022-11-04T09:16:44.711Z,13.73
2022-11-04T09:19:11.244Z,14.09
2022-11-04T09:21:37.690Z,14.55
2022-11-04T09:24:04.902Z,14.96
2022-11-04T09:26:31.786Z,15.40
2022-11-04T09:28:59.156Z,15.73
2022-11-04T09:31:28.136Z,16.16
2022-11-04T09:33:56.057Z,16.36
2022-11-04T09:36:23.078Z,16.72
2022-11-04T09:38:52.270Z,16.70
2022-11-04T09:41:21.443Z,16.82
2022-11-04T09:44:02.905Z,16.57
2022-11-04T09:46:33.262Z,16.02
2022-11-04T09:49:03.134Z,15.35
2022-11-04T09:51:53.016Z,14.70
2022-11-04T09:54:28.406Z,14.29
2022-11-04T09:56:59.283Z,13.94
2022-11-04T09:59:44.007Z,13.69
2022-11-04T10:02:40.010Z,13.51
2022-11-04T10:05:34.389Z,13.45
2022-11-04T10:08:26.015Z,13.37
2022-11-04T10:11:04.769Z,13.53
2022-11-04T10:14:19.566Z,13.46
2022-11-04T10:17:21.619Z,12.86
2022-11-04T10:19:59.877Z,12.05
2022-11-04T10:22:38.551Z,11.66
2022-11-04T10:25:15.225Z,11.26
2022-11-04T10:27:44.599Z,10.91
2022-11-04T10:30:25.310Z,10.65
2022-11-04T10:32:57.089Z,10.58
2022-11-04T10:35:39.576Z,10.63
2022-11-04T10:38:41.540Z,10.57
2022-11-04T10:41:39.074Z,10.66
2022-11-04T10:44:14.987Z,10.54
2022-11-04T10:47:07.003Z,10.61
2022-11-04T10:50:14.430Z,10.66
2022-11-04T10:52:38.185Z,10.78
2022-11-04T10:55:26.056Z,10.83
2022-11-04T10:57:57.306Z,10.76
2022-11-04T11:00:41.704Z,10.68
2022-11-04T11:03:34.559Z,10.60
2022-11-04T11:06:14.853Z,10.61
2022-11-04T11:08:43.087Z,10.65
2022-11-04T11:11:10.061Z,10.66
2022-11-04T11:13:42.277Z,10.63
2022-11-04T11:16:17.837Z,10.62
2022-11-04T11:18:44.752Z,10.63
2022-11-04T11:21:15.993Z,10.61
2022-11-04T11:23:51.096Z,10.55
2022-11-04T11:26:29.720Z,10.52
2022-11-04T11:29:02.023Z,10.46
2022-11-04T11:31:38.269Z,10.32
2022-11-04T11:34:18.813Z,10.21
2022-11-04T11:36:48.100Z,10.14
2022-11-04T11:39:21.973Z,10.02
2022-11-04T11:42:06.282Z,9.72
2022-11-04T11:44:47.918Z,9.73
2022-11-04T11:47:21.808Z,9.53
2022-11-04T11:50:05.677Z,9.46
2022-11-04T11:52:34.808Z,9.45
2022-11-04T11:55:07.551Z,9.34
2022-11-04T12:00:54.671Z,9.10
2022-11-04T12:09:56.737Z,9.17
2022-11-04T12:12:37.684Z,9.29
2022-11-04T12:15:15.057Z,9.47
2022-11-04T12:17:55.720Z,9.44
2022-11-04T12:20:52.058Z,9.57
2022-11-04T12:23:46.184Z,9.61
2022-11-04T12:26:24.611Z,9.63
2022-11-04T12:29:02.890Z,9.61
2022-11-04T12:31:49.299Z,9.53
2022-11-04T12:34:37.477Z,9.57
2022-11-04T12:37:29.522Z,9.57
2022-11-04T12:40:01.825Z,9.58
2022-11-04T12:43:05.578Z,9.44
2022-11-04T12:45:46.854Z,9.39
2022-11-04T12:48:39.968Z,9.43
2022-11-04T12:51:18.424Z,9.47
2022-11-04T12:53:55.331Z,9.53
2022-11-04T12:56:40.709Z,9.51
2022-11-04T12:59:44.176Z,9.64
2022-11-04T13:02:18.142Z,9.60
2022-11-04T13:04:59.165Z,9.62
2022-11-04T13:07:35.909Z,9.70
2022-11-04T13:10:12.181Z,9.67
2022-11-04T13:12:43.795Z,9.49
2022-11-04T13:15:18.385Z,9.59
2022-11-04T13:17:47.196Z,9.60
2022-11-04T13:20:24.156Z,9.79
2022-11-04T13:22:55.720Z,9.67
2022-11-04T13:25:44.666Z,9.67
2022-11-04T13:28:14.809Z,9.73
2022-11-04T13:30:55.339Z,9.78
2022-11-04T13:33:32.582Z,9.67
2022-11-04T13:36:28.365Z,9.79
2022-11-04T13:39:13.648Z,9.81
2022-11-04T13:41:57.551Z,9.78
2022-11-04T13:44:27.435Z,9.85
2022-11-04T13:46:58.583Z,9.91
2022-11-04T13:49:32.613Z,9.97
2022-11-04T13:52:11.336Z,9.91
2022-11-04T13:54:53.529Z,10.02
2022-11-04T13:57:28.697Z,10.04
2022-11-04T14:00:13.461Z,10.06
2022-11-04T14:02:45.083Z,10.02
2022-11-04T14:05:29.861Z,10.04
2022-11-04T14:08:01.974Z,10.01
2022-11-04T14:10:46.678Z,9.99
2022-11-04T14:13:34.967Z,10.01
2022-11-04T14:16:17.912Z,9.98
2022-11-04T14:18:47.505Z,9.97
2022-11-04T14:21:15.510Z,9.97
2022-11-04T14:23:54.014Z,9.90
2022-11-04T14:26:27.536Z,9.88
2022-11-04T14:29:05.906Z,9.89
2022-11-04T14:31:53.440Z,9.83
2022-11-04T14:34:29.390Z,9.85
2022-11-04T14:36:58.290Z,9.86
2022-11-04T14:39:28.650Z,9.89
2022-11-04T14:42:00.577Z,9.85
2022-11-04T14:44:35.553Z,9.80
2022-11-04T14:47:17.053Z,9.79
2022-11-04T14:49:46.443Z,9.80
2022-11-04T14:52:30.565Z,9.73
2022-11-04T14:55:18.992Z,9.68
2022-11-04T14:57:51.904Z,9.61
2022-11-04T15:00:24.556Z,9.62
2022-11-04T15:03:06.679Z,9.62
2022-11-04T15:05:36.474Z,9.49
2022-11-04T15:08:40.273Z,9.61
2022-11-04T15:11:44.387Z,9.64
2022-11-04T15:14:15.457Z,9.64
2022-11-04T15:16:45.819Z,9.39
2022-11-04T15:19:18.261Z,9.59
2022-11-04T15:21:48.406Z,9.52
2022-11-04T15:24:17.764Z,9.64
2022-11-04T15:26:50.086Z,9.66
2022-11-04T15:29:18.471Z,9.71
2022-11-04T15:32:04.761Z,9.68
2022-11-04T15:34:33.536Z,9.70
2022-11-04T15:37:04.237Z,9.67
2022-11-04T15:39:34.440Z,9.75
2022-11-04T15:42:22.943Z,9.81
2022-11-04T15:44:52.336Z,9.72
2022-11-04T15:47:18.631Z,9.85
2022-11-04T15:49:47.160Z,9.83
2022-11-04T15:52:21.429Z,9.83
2022-11-04T15:54:50.724Z,9.83
2022-11-04T15:57:21.120Z,9.82
2022-11-04T15:59:54.755Z,9.78
2022-11-04T16:02:49.555Z,9.66
2022-11-04T16:05:22.862Z,9.69
2022-11-04T16:07:51.900Z,9.62
2022-11-04T16:10:30.629Z,9.61
2022-11-04T16:13:02.116Z,9.59
2022-11-04T16:15:41.543Z,9.55
2022-11-04T16:18:24.019Z,9.53
2022-11-04T16:20:53.098Z,9.54
2022-11-04T16:23:23.719Z,9.52
2022-11-04T16:26:05.989Z,9.49
2022-11-04T16:28:39.626Z,9.55
2022-11-04T16:31:07.570Z,9.58
2022-11-04T16:33:34.495Z,9.57
2022-11-04T16:36:00.978Z,9.42
2022-11-04T16:38:27.423Z,9.50
2022-11-04T16:40:53.822Z,9.47
2022-11-04T16:43:21.590Z,9.40
2022-11-04T16:45:53.848Z,9.36
2022-11-04T16:48:21.331Z,9.32
2022-11-04T16:50:48.924Z,9.32
2022-11-04T16:53:16.380Z,9.30
2022-11-04T16:55:44.374Z,9.33
2022-11-04T16:58:17.693Z,9.28
2022-11-04T17:00:44.164Z,9.26
2022-11-04T17:03:22.719Z,9.22
2022-11-04T17:05:56.252Z,9.09
2022-11-04T17:08:23.659Z,8.99
2022-11-04T17:10:50.062Z,8.95
2022-11-04T17:13:16.665Z,8.97
2022-11-04T17:15:43.538Z,8.93
2022-11-04T17:18:15.099Z,8.94
2022-11-04T17:20:44.164Z,8.94
2022-11-04T17:23:13.193Z,8.97
2022-11-04T17:25:39.690Z,8.98
2022-11-04T17:28:06.075Z,8.99
2022-11-04T17:30:32.816Z,9.05
2022-11-04T17:33:00.140Z,9.09
2022-11-04T17:35:28.664Z,9.05
2022-11-04T17:37:55.278Z,8.87
2022-11-04T17:40:24.021Z,9.05
2022-11-04T17:43:12.290Z,9.07
2022-11-04T17:45:41.000Z,9.10
2022-11-04T17:48:08.997Z,8.99
2022-11-04T17:50:37.355Z,8.94
2022-11-04T17:53:03.804Z,8.77
2022-11-04T17:55:30.310Z,8.80
2022-11-04T17:57:57.178Z,8.75
2022-11-04T18:00:29.631Z,8.70
2022-11-04T18:02:56.645Z,8.64
2022-11-04T18:05:23.169Z,8.67
2022-11-04T18:07:49.602Z,8.58
2022-11-04T18:10:16.035Z,8.66
2022-11-04T18:12:42.407Z,8.65
2022-11-04T18:15:11.785Z,8.67
2022-11-04T18:17:44.196Z,8.68
2022-11-04T18:20:17.028Z,8.69
2022-11-04T18:22:44.570Z,8.68
2022-11-04T18:25:12.670Z,8.63
2022-11-04T18:27:39.113Z,8.56
2022-11-04T18:30:06.405Z,8.53
2022-11-04T18:32:33.578Z,8.51
2022-11-04T18:35:00.228Z,8.41
2022-11-04T18:37:28.377Z,8.34
2022-11-04T18:39:54.814Z,8.29
2022-11-04T18:42:22.157Z,8.23
2022-11-04T18:44:48.697Z,8.20
2022-11-04T18:47:15.551Z,8.14
2022-11-04T18:49:42.520Z,8.07
2022-11-04T18:52:09.057Z,8.06
2022-11-04T18:54:36.245Z,8.04
2022-11-04T18:57:04.034Z,7.95
2022-11-04T18:59:30.613Z,7.89
2022-11-04T19:01:57.099Z,7.91
2022-11-04T19:04:23.578Z,7.89
2022-11-04T19:06:49.986Z,7.82
2022-11-04T19:09:46.214Z,7.82
2022-11-04T19:12:22.177Z,7.84
2022-11-04T19:14:49.131Z,7.80
2022-11-04T19:17:16.041Z,7.85
2022-11-04T19:19:42.940Z,7.90
2022-11-04T19:22:10.147Z,7.90
2022-11-04T19:24:36.624Z,8.05
2022-11-04T19:27:03.308Z,8.15
2022-11-04T19:29:30.100Z,8.18
2022-11-04T19:31:56.582Z,8.14
2022-11-04T19:34:23.165Z,8.13
2022-11-04T19:36:49.631Z,8.15
2022-11-04T19:39:16.035Z,8.15
2022-11-04T19:42:01.248Z,8.18
2022-11-04T19:44:27.644Z,8.21
2022-11-04T19:46:54.153Z,8.13
2022-11-04T19:49:20.888Z,8.26
2022-11-04T19:51:47.429Z,8.30
2022-11-04T19:54:13.966Z,8.32
2022-11-04T19:56:40.851Z,8.41
2022-11-04T19:59:09.120Z,8.47
2022-11-04T20:01:36.025Z,8.51
2022-11-04T20:04:03.981Z,8.51
2022-11-04T20:06:32.236Z,8.47
2022-11-04T20:09:01.853Z,8.49
2022-11-04T20:11:28.454Z,8.40
2022-11-04T20:13:55.030Z,8.44
2022-11-04T20:16:23.094Z,8.47
2022-11-04T20:18:52.696Z,8.45
2022-11-04T20:21:20.952Z,8.43
2022-11-04T20:23:47.348Z,8.35
2022-11-04T20:26:20.874Z,8.34
2022-11-04T20:28:47.788Z,8.37
2022-11-04T20:31:20.153Z,8.35
2022-11-04T20:33:47.882Z,8.39
2022-11-04T20:36:17.130Z,8.37
2022-11-04T20:38:43.520Z,8.43
2022-11-04T20:41:18.604Z,8.50
2022-11-04T20:43:46.801Z,8.54
2022-11-04T20:46:19.884Z,8.41
2022-11-04T20:48:47.655Z,8.60
2022-11-04T20:51:25.280Z,8.50
2022-11-04T20:53:56.256Z,8.64
2022-11-04T20:56:24.878Z,8.66
2022-11-04T20:58:57.632Z,8.66
2022-11-04T21:01:28.602Z,8.67
2022-11-04T21:03:58.984Z,8.67
2022-11-04T21:06:26.225Z,8.72
2022-11-04T21:08:52.870Z,8.77
2022-11-04T21:11:19.514Z,8.80
2022-11-04T21:13:46.214Z,8.82
2022-11-04T21:16:16.976Z,8.90
2022-11-04T21:18:43.986Z,8.97
2022-11-04T21:21:13.704Z,8.95
2022-11-04T21:23:40.225Z,8.86
2022-11-04T21:26:14.171Z,8.97
2022-11-04T21:28:40.686Z,8.95
2022-11-04T21:31:10.390Z,8.97
2022-11-04T21:33:37.158Z,9.01
2022-11-04T21:36:10.500Z,9.06
2022-11-04T21:38:37.001Z,9.04
2022-11-04T21:41:06.145Z,9.10
2022-11-04T21:43:32.861Z,9.14
2022-11-04T21:46:04.128Z,9.14
2022-11-04T21:48:32.459Z,9.08
2022-11-04T21:51:03.602Z,9.10
2022-11-04T21:53:30.789Z,9.07
2022-11-04T21:56:08.355Z,9.06
2022-11-04T21:58:36.450Z,9.05
2022-11-04T22:01:04.514Z,8.99
2022-11-04T22:03:31.246Z,8.93
2022-11-04T22:06:06.637Z,8.83
2022-11-04T22:08:34.060Z,8.92
2022-11-04T22:11:14.557Z,8.84
2022-11-04T22:13:41.441Z,8.83
2022-11-04T22:16:17.124Z,8.83
2022-11-04T22:18:45.194Z,8.79
2022-11-04T22:21:14.769Z,8.75
2022-11-04T22:23:41.714Z,8.73
2022-11-04T22:26:12.502Z,8.67
2022-11-04T22:28:38.938Z,8.66
2022-11-04T22:31:20.511Z,8.61
2022-11-04T22:33:47.129Z,8.74
2022-11-04T22:36:14.079Z,8.77
2022-11-04T22:38:42.584Z,8.78
2022-11-04T22:41:11.817Z,8.81
2022-11-04T22:43:38.516Z,8.84
2022-11-04T22:46:20.464Z,8.73
2022-11-04T22:48:47.330Z,8.76
2022-11-04T22:51:14.954Z,8.75
2022-11-04T22:53:41.401Z,8.70
2022-11-04T22:56:09.565Z,8.67
2022-11-04T22:58:36.462Z,8.53
2022-11-04T23:01:09.619Z,8.49
2022-11-04T23:03:36.077Z,8.44
2022-11-04T23:06:04.915Z,8.41
2022-11-04T23:08:32.925Z,8.30
2022-11-04T23:11:26.286Z,8.14
2022-11-04T23:14:21.239Z,8.06
2022-11-04T23:17:09.081Z,7.94
2022-11-04T23:19:36.470Z,7.89
2022-11-04T23:22:21.805Z,7.70
2022-11-04T23:25:06.264Z,7.79
2022-11-04T23:27:52.654Z,7.77
2022-11-04T23:30:21.746Z,7.69
2022-11-04T23:32:48.655Z,7.68
2022-11-04T23:35:34.268Z,7.60
2022-11-04T23:38:01.075Z,7.63
2022-11-04T23:40:28.878Z,7.54
2022-11-04T23:42:55.646Z,7.57
2022-11-04T23:45:41.286Z,7.55
2022-11-04T23:48:29.067Z,7.47
2022-11-04T23:51:18.921Z,7.49
2022-11-04T23:54:04.353Z,7.50
2022-11-04T23:56:49.830Z,7.50
2022-11-04T23:59:37.064Z,7.48
